createdAt,value
2019-03-19T00:01:03.163Z,3.64
2019-03-19T00:03:32.683Z,3.65
2019-03-19T00:06:02.234Z,3.75
2019-03-19T00:08:31.936Z,3.66
2019-03-19T00:11:01.505Z,3.70
2019-03-19T00:13:30.990Z,3.74
2019-03-19T00:16:01.161Z,3.70
2019-03-19T00:18:30.707Z,3.71
2019-03-19T00:21:00.281Z,2.94
2019-03-19T00:23:30.034Z,3.72
2019-03-19T00:25:59.594Z,3.76
2019-03-19T00:28:29.182Z,3.68
2019-03-19T00:30:58.930Z,3.55
2019-03-19T00:33:28.639Z,3.55
2019-03-19T00:36:01.235Z,3.56
2019-03-19T00:38:30.771Z,3.56
2019-03-19T00:41:00.264Z,3.58
2019-03-19T00:43:29.816Z,3.62
2019-03-19T00:45:59.723Z,3.61
2019-03-19T00:48:29.479Z,3.61
2019-03-19T00:50:59.048Z,3.56
2019-03-19T00:53:28.574Z,3.45
2019-03-19T00:55:58.147Z,3.37
2019-03-19T00:58:28.087Z,3.40
2019-03-19T01:00:57.772Z,3.39
2019-03-19T01:03:27.914Z,3.48
2019-03-19T01:05:57.627Z,3.50
2019-03-19T01:08:30.110Z,3.51
2019-03-19T01:10:59.793Z,3.52
2019-03-19T01:13:29.405Z,3.53
2019-03-19T01:15:59.300Z,3.58
2019-03-19T01:18:28.914Z,3.54
2019-03-19T01:20:58.443Z,3.54
2019-03-19T01:23:28.272Z,3.54
2019-03-19T01:25:57.990Z,3.55
2019-03-19T01:28:27.545Z,3.36
2019-03-19T01:30:57.556Z,3.47
2019-03-19T01:33:28.170Z,3.43
2019-03-19T01:35:59.051Z,3.39
2019-03-19T01:38:28.949Z,3.40
2019-03-19T01:40:58.502Z,3.45
2019-03-19T01:43:28.079Z,3.46
2019-03-19T01:45:57.748Z,3.39
2019-03-19T01:48:27.453Z,3.36
2019-03-19T01:50:57.301Z,3.39
2019-03-19T01:53:27.059Z,3.38
2019-03-19T01:56:04.834Z,3.37
2019-03-19T01:58:28.408Z,3.39
2019-03-19T02:00:58.070Z,3.31
2019-03-19T02:03:27.795Z,3.21
2019-03-19T02:05:57.352Z,3.18
2019-03-19T02:08:27.111Z,3.24
2019-03-19T02:10:56.926Z,3.27
2019-03-19T02:13:26.596Z,3.22
2019-03-19T02:15:56.471Z,3.17
2019-03-19T02:18:26.021Z,3.23
2019-03-19T02:20:56.281Z,3.25
2019-03-19T02:23:26.033Z,3.21
2019-03-19T02:25:55.590Z,3.21
2019-03-19T02:28:25.220Z,3.17
2019-03-19T02:30:54.917Z,3.21
2019-03-19T02:33:24.433Z,3.22
2019-03-19T02:35:54.495Z,3.29
2019-03-19T02:38:24.106Z,3.22
2019-03-19T02:40:53.719Z,3.24
2019-03-19T02:43:23.222Z,3.23
2019-03-19T02:45:52.636Z,3.28
2019-03-19T02:48:22.227Z,3.10
2019-03-19T02:50:51.689Z,3.13
2019-03-19T02:53:21.193Z,3.12
2019-03-19T02:55:50.801Z,3.10
2019-03-19T02:58:20.225Z,3.08
2019-03-19T03:00:50.115Z,3.13
2019-03-19T03:03:19.649Z,3.11
2019-03-19T03:05:49.340Z,3.09
2019-03-19T03:08:19.144Z,3.15
2019-03-19T03:10:48.746Z,3.08
2019-03-19T03:13:18.378Z,2.98
2019-03-19T03:15:47.904Z,2.87
2019-03-19T03:18:17.399Z,3.01
2019-03-19T03:20:47.158Z,2.98
2019-03-19T03:23:16.958Z,3.04
2019-03-19T03:25:46.602Z,3.04
2019-03-19T03:28:16.224Z,3.06
2019-03-19T03:30:45.818Z,3.07
2019-03-19T03:33:15.340Z,2.90
2019-03-19T03:35:44.900Z,2.92
2019-03-19T03:38:14.528Z,2.91
2019-03-19T03:40:44.015Z,2.85
2019-03-19T03:43:13.686Z,2.93
2019-03-19T03:45:43.196Z,2.97
2019-03-19T03:48:12.679Z,3.01
2019-03-19T03:50:42.193Z,3.05
2019-03-19T03:53:11.624Z,3.04
2019-03-19T03:55:41.359Z,3.01
2019-03-19T03:58:10.918Z,3.04
2019-03-19T04:00:40.449Z,3.04
2019-03-19T04:03:09.988Z,3.03
2019-03-19T04:05:39.570Z,3.05
2019-03-19T04:08:09.252Z,3.07
2019-03-19T04:10:39.080Z,3.02
2019-03-19T04:13:08.568Z,3.05
2019-03-19T04:15:38.226Z,3.04
2019-03-19T04:18:07.775Z,2.97
2019-03-19T04:20:37.371Z,3.02
2019-03-19T04:23:06.932Z,2.99
2019-03-19T04:25:36.480Z,2.97
2019-03-19T04:28:06.146Z,2.97
2019-03-19T04:30:35.672Z,2.98
2019-03-19T04:33:05.505Z,3.02
2019-03-19T04:35:35.034Z,2.98
2019-03-19T04:38:04.644Z,2.94
2019-03-19T04:40:34.212Z,2.90
2019-03-19T04:43:03.775Z,2.87
2019-03-19T04:45:33.218Z,2.83
2019-03-19T04:48:03.674Z,2.88
2019-03-19T04:50:33.683Z,2.89
2019-03-19T04:53:03.285Z,2.84
2019-03-19T04:55:32.704Z,2.86
2019-03-19T04:58:02.338Z,2.86
2019-03-19T05:00:31.827Z,2.84
2019-03-19T05:03:01.447Z,2.83
2019-03-19T05:05:31.003Z,2.78
2019-03-19T05:08:00.515Z,2.78
2019-03-19T05:10:29.969Z,2.77
2019-03-19T05:13:00.789Z,2.77
2019-03-19T05:15:30.477Z,2.71
2019-03-19T05:18:00.313Z,2.74
2019-03-19T05:20:30.060Z,2.73
2019-03-19T05:22:59.539Z,2.69
2019-03-19T05:25:28.970Z,2.75
2019-03-19T05:27:58.538Z,2.71
2019-03-19T05:30:28.294Z,2.58
2019-03-19T05:32:57.986Z,2.68
2019-03-19T05:35:27.545Z,2.68
2019-03-19T05:37:57.413Z,2.63
2019-03-19T05:40:27.203Z,2.68
2019-03-19T05:42:56.925Z,2.68
2019-03-19T05:45:27.036Z,2.62
2019-03-19T05:47:56.892Z,2.69
2019-03-19T05:50:26.412Z,2.77
2019-03-19T05:52:56.262Z,2.77
2019-03-19T05:55:25.890Z,2.77
2019-03-19T05:57:55.457Z,2.77
2019-03-19T06:00:27.001Z,2.79
2019-03-19T06:02:56.903Z,2.80
2019-03-19T06:05:26.472Z,2.79
2019-03-19T06:07:56.728Z,2.82
2019-03-19T06:10:26.400Z,2.85
2019-03-19T06:12:56.193Z,2.91
2019-03-19T06:15:26.405Z,3.09
2019-03-19T06:17:56.263Z,3.05
2019-03-19T06:20:25.944Z,3.15
2019-03-19T06:22:55.533Z,2.98
2019-03-19T06:25:25.225Z,3.01
2019-03-19T06:28:00.344Z,3.04
2019-03-19T06:30:26.500Z,2.97
2019-03-19T06:32:58.631Z,3.01
2019-03-19T06:35:28.849Z,2.99
2019-03-19T06:37:58.523Z,3.06
2019-03-19T06:40:28.437Z,3.11
2019-03-19T06:42:58.331Z,3.19
2019-03-19T06:45:29.434Z,3.23
2019-03-19T06:47:59.081Z,3.30
2019-03-19T06:50:28.594Z,3.39
2019-03-19T06:52:58.639Z,3.40
2019-03-19T06:55:28.379Z,3.49
2019-03-19T06:57:58.624Z,3.41
2019-03-19T07:00:28.524Z,3.39
2019-03-19T07:02:58.263Z,3.53
2019-03-19T07:05:27.975Z,3.56
2019-03-19T07:07:57.558Z,3.64
2019-03-19T07:10:27.401Z,3.66
2019-03-19T07:12:57.053Z,3.61
2019-03-19T07:15:26.749Z,3.69
2019-03-19T07:17:56.349Z,3.78
2019-03-19T07:20:26.251Z,3.77
2019-03-19T07:22:55.934Z,3.85
2019-03-19T07:25:25.566Z,3.94
2019-03-19T07:27:55.179Z,3.98
2019-03-19T08:41:01.490Z,5.23
2019-03-19T08:43:31.211Z,5.10
2019-03-19T08:46:01.348Z,5.12
2019-03-19T08:48:31.148Z,5.13
2019-03-19T08:51:01.103Z,5.13
2019-03-19T08:53:32.542Z,5.18
2019-03-19T08:56:03.185Z,5.24
2019-03-19T08:58:33.396Z,5.29
2019-03-19T09:01:03.425Z,5.39
2019-03-19T09:03:34.648Z,5.38
2019-03-19T09:06:04.653Z,5.74
2019-03-19T09:08:34.694Z,6.81
2019-03-19T09:11:08.354Z,6.45
2019-03-19T09:13:39.030Z,5.99
2019-03-19T09:16:08.759Z,5.93
2019-03-19T09:18:38.901Z,5.99
2019-03-19T09:21:09.453Z,6.05
2019-03-19T09:23:39.316Z,6.27
2019-03-19T09:26:09.450Z,6.28
2019-03-19T09:28:39.377Z,6.28
2019-03-19T09:31:09.144Z,6.37
2019-03-19T09:33:39.013Z,6.55
2019-03-19T09:36:08.600Z,6.55
2019-03-19T09:38:39.132Z,6.52
2019-03-19T09:41:09.383Z,6.64
2019-03-19T09:43:38.963Z,6.65
2019-03-19T09:46:10.046Z,6.66
2019-03-19T09:48:40.323Z,6.77
2019-03-19T09:51:10.547Z,6.89
2019-03-19T09:53:40.868Z,6.83
2019-03-19T09:56:11.926Z,6.82
2019-03-19T09:58:41.799Z,7.02
2019-03-19T10:01:11.912Z,7.04
2019-03-19T10:03:42.397Z,7.04
2019-03-19T10:06:14.416Z,6.97
2019-03-19T10:08:43.606Z,7.05
2019-03-19T10:11:13.459Z,7.17
2019-03-19T10:13:43.318Z,6.94
2019-03-19T10:16:13.847Z,7.14
2019-03-19T10:18:44.001Z,7.27
2019-03-19T10:21:15.013Z,7.40
2019-03-19T10:47:10.023Z,7.49
2019-03-19T10:49:39.667Z,7.49
2019-03-19T10:52:09.897Z,7.53
2019-03-19T10:54:39.418Z,7.50
2019-03-19T10:57:09.666Z,7.27
2019-03-19T10:59:48.859Z,7.46
2019-03-19T11:02:10.658Z,7.63
2019-03-19T11:04:40.480Z,7.56
2019-03-19T11:07:10.875Z,7.45
2019-03-19T11:09:40.872Z,7.45
2019-03-19T11:12:10.616Z,7.42
2019-03-19T11:14:40.317Z,7.42
2019-03-19T11:17:10.325Z,7.62
2019-03-19T11:19:40.601Z,7.61
2019-03-19T11:22:10.696Z,7.46
2019-03-19T11:24:40.740Z,7.64
2019-03-19T11:27:10.687Z,7.55
2019-03-19T11:29:40.154Z,7.55
2019-03-19T11:32:11.086Z,7.64
2019-03-19T11:34:40.972Z,7.40
2019-03-19T11:37:10.917Z,7.52
2019-03-19T11:39:40.607Z,7.52
2019-03-19T11:42:10.749Z,7.63
2019-03-19T11:44:42.842Z,7.57
2019-03-19T11:47:12.185Z,7.97
2019-03-19T11:49:42.339Z,7.88
2019-03-19T11:52:11.982Z,7.88
2019-03-19T11:54:42.233Z,7.53
2019-03-19T11:57:11.757Z,7.80
2019-03-19T11:59:41.599Z,7.78
2019-03-19T12:02:11.580Z,7.84
2019-03-19T12:04:41.204Z,7.84
2019-03-19T12:07:12.113Z,7.94
2019-03-19T12:09:42.016Z,7.84
2019-03-19T12:12:11.813Z,7.81
2019-03-19T12:14:41.527Z,7.90
2019-03-19T12:17:11.284Z,8.00
2019-03-19T12:19:40.863Z,7.92
2019-03-19T12:22:10.680Z,7.73
2019-03-19T12:24:40.147Z,7.70
2019-03-19T12:27:10.023Z,7.73
2019-03-19T12:29:39.697Z,7.79
2019-03-19T12:32:09.361Z,7.74
2019-03-19T12:34:38.937Z,7.88
2019-03-19T12:37:08.873Z,8.07
2019-03-19T12:39:38.775Z,8.17
2019-03-19T12:42:08.352Z,8.04
2019-03-19T12:44:37.949Z,7.68
2019-03-19T12:47:07.524Z,7.68
2019-03-19T12:49:37.182Z,7.79
2019-03-19T12:52:06.801Z,7.79
2019-03-19T12:54:37.937Z,7.94
2019-03-19T12:57:10.551Z,7.83
2019-03-19T12:59:42.595Z,7.74
2019-03-19T13:02:12.984Z,7.57
2019-03-19T13:04:42.526Z,7.57
2019-03-19T13:07:12.578Z,7.72
2019-03-19T13:09:42.792Z,7.59
2019-03-19T13:12:12.827Z,7.80
2019-03-19T13:14:42.817Z,7.80
2019-03-19T13:17:13.163Z,7.89
2019-03-19T14:37:48.693Z,7.66
2019-03-19T14:40:19.306Z,7.30
2019-03-19T14:42:49.355Z,7.22
2019-03-19T14:45:22.467Z,7.22
2019-03-19T14:47:52.115Z,7.18
2019-03-19T14:50:21.926Z,7.24
2019-03-19T14:52:51.739Z,7.20
2019-03-19T14:55:22.158Z,7.15
2019-03-19T14:57:51.894Z,7.12
2019-03-19T15:00:22.270Z,7.14
2019-03-19T15:02:51.882Z,7.10
2019-03-19T15:05:23.224Z,6.96
2019-03-19T15:07:52.934Z,6.93
2019-03-19T15:10:22.611Z,6.93
2019-03-19T15:12:53.978Z,6.91
2019-03-19T15:15:23.719Z,6.91
2019-03-19T15:17:53.735Z,6.94
2019-03-19T15:20:23.248Z,6.96
2019-03-19T15:22:53.448Z,6.96
2019-03-19T15:25:23.229Z,6.98
2019-03-19T15:27:53.637Z,6.96
2019-03-19T15:30:23.325Z,7.01
2019-03-19T15:32:53.043Z,6.97
2019-03-19T15:35:22.673Z,7.07
2019-03-19T15:37:54.918Z,7.07
2019-03-19T15:40:24.601Z,7.10
2019-03-19T15:42:54.749Z,7.11
2019-03-19T15:45:24.484Z,7.03
2019-03-19T15:47:54.131Z,7.04
2019-03-19T15:50:24.016Z,7.05
2019-03-19T15:52:53.748Z,6.96
2019-03-19T15:55:23.397Z,6.98
2019-03-19T15:57:54.230Z,7.02
2019-03-19T16:00:24.083Z,7.02
2019-03-19T16:02:54.659Z,6.82
2019-03-19T16:05:24.358Z,7.12
2019-03-19T16:07:53.972Z,7.02
2019-03-19T16:10:23.932Z,7.02
2019-03-19T16:12:57.142Z,7.02
2019-03-19T16:15:26.751Z,7.02
2019-03-19T16:17:56.272Z,6.95
2019-03-19T16:20:26.059Z,6.92
2019-03-19T16:22:55.793Z,6.96
2019-03-19T16:25:25.714Z,6.96
2019-03-19T16:27:57.091Z,6.96
2019-03-19T16:30:27.889Z,6.82
2019-03-19T16:33:00.103Z,6.89
2019-03-19T16:35:29.740Z,6.89
2019-03-19T16:38:00.591Z,6.84
2019-03-19T16:40:30.148Z,6.82
2019-03-19T16:43:00.611Z,6.82
2019-03-19T16:45:30.220Z,6.81
2019-03-19T16:47:59.930Z,6.90
2019-03-19T16:50:31.777Z,6.90
2019-03-19T16:53:01.487Z,6.85
2019-03-19T16:55:31.160Z,6.83
2019-03-19T16:58:00.995Z,6.81
2019-03-19T17:00:32.556Z,6.83
2019-03-19T17:03:02.262Z,6.78
2019-03-19T17:05:31.846Z,6.79
2019-03-19T17:08:01.760Z,6.80
2019-03-19T17:10:31.422Z,6.75
2019-03-19T17:13:01.331Z,6.66
2019-03-19T17:15:31.190Z,6.66
2019-03-19T17:18:00.806Z,6.55
2019-03-19T17:20:30.431Z,6.55
2019-03-19T17:23:00.651Z,6.52
2019-03-19T17:25:31.601Z,6.45
2019-03-19T17:28:01.478Z,6.42
2019-03-19T17:30:31.320Z,6.30
2019-03-19T17:33:02.490Z,6.25
2019-03-19T17:35:32.114Z,6.25
2019-03-19T17:38:02.468Z,6.25
2019-03-19T17:40:40.976Z,6.21
2019-03-19T17:43:03.624Z,6.21
2019-03-19T17:45:33.385Z,6.17
2019-03-19T17:48:03.050Z,6.13
2019-03-19T17:50:33.480Z,6.20
2019-03-19T17:53:05.515Z,6.24
2019-03-19T17:55:35.284Z,6.15
2019-03-19T17:58:07.079Z,5.96
2019-03-19T18:00:39.853Z,5.84
2019-03-19T18:03:09.671Z,5.68
2019-03-19T18:05:39.349Z,5.68
2019-03-19T18:08:11.665Z,5.61
2019-03-19T18:10:43.912Z,5.50
2019-03-19T18:13:16.941Z,5.50
2019-03-19T18:15:46.552Z,5.47
2019-03-19T18:18:16.674Z,5.45
2019-03-19T18:20:46.274Z,5.43
2019-03-19T18:23:17.761Z,5.37
2019-03-19T18:25:52.369Z,5.33
2019-03-19T18:28:22.273Z,5.28
2019-03-19T18:30:53.388Z,5.29
2019-03-19T18:33:23.569Z,5.30
2019-03-19T18:35:56.171Z,5.30
2019-03-19T18:38:24.485Z,5.28
2019-03-19T18:40:54.127Z,5.24
2019-03-19T18:43:23.931Z,5.20
2019-03-19T18:45:53.797Z,5.21
2019-03-19T18:48:23.776Z,5.19
2019-03-19T18:50:53.457Z,5.12
2019-03-19T18:53:23.008Z,5.12
2019-03-19T18:55:55.872Z,5.06
2019-03-19T18:58:25.530Z,5.03
2019-03-19T19:00:55.308Z,5.03
2019-03-19T19:03:25.011Z,4.97
2019-03-19T19:05:56.134Z,5.04
2019-03-19T19:08:26.556Z,5.04
2019-03-19T19:10:57.429Z,5.09
2019-03-19T19:13:27.939Z,5.07
2019-03-19T19:15:57.903Z,5.14
2019-03-19T19:18:28.106Z,5.15
2019-03-19T19:20:58.608Z,5.06
2019-03-19T19:23:29.091Z,5.08
2019-03-19T19:25:58.844Z,5.02
2019-03-19T19:28:31.128Z,4.97
2019-03-19T19:31:01.645Z,4.96
2019-03-19T19:33:31.492Z,4.91
2019-03-19T19:36:03.263Z,4.90
2019-03-19T19:38:33.221Z,4.90
2019-03-19T19:41:03.278Z,4.96
2019-03-19T19:43:34.480Z,5.08
2019-03-19T19:46:08.769Z,5.14
2019-03-19T19:48:41.891Z,5.23
2019-03-19T19:51:12.612Z,5.26
2019-03-19T19:53:43.135Z,5.28
2019-03-19T19:56:13.285Z,5.33
2019-03-19T19:58:45.419Z,5.33
2019-03-19T20:01:16.316Z,5.35
2019-03-19T20:03:46.962Z,5.37
2019-03-19T20:06:20.243Z,5.23
2019-03-19T20:08:50.980Z,5.29
2019-03-19T20:11:45.017Z,5.34
2019-03-19T20:14:17.440Z,5.35
2019-03-19T20:16:59.877Z,5.31
2019-03-19T20:19:41.171Z,5.28
2019-03-19T20:22:14.917Z,5.32
2019-03-19T20:24:44.776Z,5.28
2019-03-19T20:27:18.413Z,5.24
2019-03-19T20:29:49.676Z,5.23
2019-03-19T20:32:23.910Z,5.21
2019-03-19T20:34:56.027Z,5.21
2019-03-19T20:37:27.652Z,5.18
2019-03-19T20:39:59.424Z,5.18
2019-03-19T20:42:36.990Z,5.18
2019-03-19T20:45:08.866Z,5.16
2019-03-19T20:47:40.781Z,5.15
2019-03-19T20:50:22.500Z,5.15
2019-03-19T20:52:53.466Z,5.14
2019-03-19T20:55:23.760Z,5.08
2019-03-19T20:57:54.837Z,5.06
2019-03-19T21:00:57.494Z,5.08
2019-03-19T21:03:35.533Z,5.06
2019-03-19T21:05:58.960Z,5.04
2019-03-19T21:08:29.167Z,5.01
2019-03-19T21:10:58.879Z,4.98
2019-03-19T21:13:39.030Z,4.97
2019-03-19T21:16:09.285Z,4.98
2019-03-19T21:18:39.869Z,5.00
2019-03-19T21:21:09.768Z,5.07
2019-03-19T21:23:40.487Z,5.16
2019-03-19T21:26:13.543Z,5.16
2019-03-19T21:28:43.493Z,5.10
2019-03-19T21:31:13.504Z,5.07
2019-03-19T21:33:51.146Z,5.02
2019-03-19T21:36:23.056Z,5.08
2019-03-19T21:38:49.242Z,5.11
2019-03-19T21:41:22.772Z,5.15
2019-03-19T21:43:53.461Z,5.15
2019-03-19T21:46:25.607Z,5.16
2019-03-19T21:48:55.354Z,5.19
2019-03-19T21:51:25.453Z,5.15
2019-03-19T21:53:56.047Z,5.17
2019-03-19T21:56:25.743Z,5.11
2019-03-19T21:58:57.784Z,5.10
2019-03-19T22:01:27.420Z,5.13
2019-03-19T22:04:03.130Z,5.19
2019-03-19T22:06:30.442Z,5.19
2019-03-19T22:09:00.246Z,5.13
2019-03-19T22:11:30.029Z,5.04
2019-03-19T22:13:59.895Z,5.05
2019-03-19T22:16:29.843Z,5.04
2019-03-19T22:18:59.533Z,5.05
2019-03-19T22:21:31.390Z,5.01
2019-03-19T22:24:01.063Z,4.96
2019-03-19T22:26:30.588Z,4.91
2019-03-19T22:29:00.155Z,4.90
2019-03-19T22:31:30.828Z,4.91
2019-03-19T22:34:01.074Z,4.93
2019-03-19T22:36:31.027Z,4.97
2019-03-19T22:39:02.930Z,4.98
2019-03-19T22:41:32.681Z,5.02
2019-03-19T22:44:02.541Z,4.99
2019-03-19T22:46:32.586Z,5.02
2019-03-19T22:49:04.266Z,5.03
2019-03-19T22:51:34.336Z,5.07
2019-03-19T22:54:04.084Z,5.12
2019-03-19T22:56:35.382Z,5.20
2019-03-19T22:59:06.360Z,5.15
2019-03-19T23:01:37.647Z,5.16
2019-03-19T23:04:09.884Z,5.16
2019-03-19T23:06:39.526Z,5.18
2019-03-19T23:09:09.938Z,5.20
2019-03-19T23:11:39.724Z,5.21
2019-03-19T23:14:10.077Z,5.24
2019-03-19T23:16:42.324Z,5.24
2019-03-19T23:19:12.188Z,5.28
2019-03-19T23:21:41.818Z,5.26
2019-03-19T23:24:11.554Z,5.21
2019-03-19T23:26:41.035Z,5.26
2019-03-19T23:29:10.982Z,5.30
2019-03-19T23:31:43.347Z,5.30
2019-03-19T23:34:14.333Z,5.24
2019-03-19T23:36:43.971Z,5.24
2019-03-19T23:39:14.598Z,5.25
2019-03-19T23:41:44.162Z,5.24
2019-03-19T23:44:16.182Z,5.26
2019-03-19T23:46:46.386Z,5.30
2019-03-19T23:49:15.906Z,5.31
2019-03-19T23:51:45.472Z,5.33
2019-03-19T23:54:15.129Z,5.32
2019-03-19T23:56:45.001Z,5.36
2019-03-19T23:59:14.791Z,5.32
